sensor_id;sensor_type;location;lat;lon;timestamp;temperature;humidity
40589;DHT22;26297;49.450;6.640;2022-07-21T00:00:25;22.60;99.90
40589;DHT22;26297;49.450;6.640;2022-07-21T00:03:28;22.60;99.90
40589;DHT22;26297;49.450;6.640;2022-07-21T00:06:31;22.50;99.90
40589;DHT22;26297;49.450;6.640;2022-07-21T00:09:34;22.60;99.90
40589;DHT22;26297;49.450;6.640;2022-07-21T00:12:38;22.50;99.90
40589;DHT22;26297;49.450;6.640;2022-07-21T00:15:41;22.50;99.90
40589;DHT22;26297;49.450;6.640;2022-07-21T00:18:45;22.50;99.90
40589;DHT22;26297;49.450;6.640;2022-07-21T00:21:48;22.50;99.90
40589;DHT22;26297;49.450;6.640;2022-07-21T00:24:51;22.50;99.90
40589;DHT22;26297;49.450;6.640;2022-07-21T00:27:54;22.50;99.90
40589;DHT22;26297;49.450;6.640;2022-07-21T00:30:57;22.50;99.90
40589;DHT22;26297;49.450;6.640;2022-07-21T00:33:59;22.50;99.90
40589;DHT22;26297;49.450;6.640;2022-07-21T00:37:02;22.50;99.90
40589;DHT22;26297;49.450;6.640;2022-07-21T00:40:08;22.50;99.90
40589;DHT22;26297;49.450;6.640;2022-07-21T00:43:12;22.50;99.90
40589;DHT22;26297;49.450;6.640;2022-07-21T00:46:15;22.50;99.90
40589;DHT22;26297;49.450;6.640;2022-07-21T00:49:19;22.50;99.90
40589;DHT22;26297;49.450;6.640;2022-07-21T00:52:23;22.40;99.90
40589;DHT22;26297;49.450;6.640;2022-07-21T00:55:26;22.50;99.90
40589;DHT22;26297;49.450;6.640;2022-07-21T00:58:30;22.40;99.90
40589;DHT22;26297;49.450;6.640;2022-07-21T01:01:33;22.40;99.90
40589;DHT22;26297;49.450;6.640;2022-07-21T01:04:36;22.40;99.90
40589;DHT22;26297;49.450;6.640;2022-07-21T01:07:40;22.40;99.90
40589;DHT22;26297;49.450;6.640;2022-07-21T01:10:44;22.40;99.90
40589;DHT22;26297;49.450;6.640;2022-07-21T01:13:48;22.40;99.90
40589;DHT22;26297;49.450;6.640;2022-07-21T01:16:51;22.30;99.90
40589;DHT22;26297;49.450;6.640;2022-07-21T01:19:55;22.40;99.90
40589;DHT22;26297;49.450;6.640;2022-07-21T01:22:58;22.30;99.90
40589;DHT22;26297;49.450;6.640;2022-07-21T01:26:01;22.30;99.90
40589;DHT22;26297;49.450;6.640;2022-07-21T01:29:05;22.30;99.90
40589;DHT22;26297;49.450;6.640;2022-07-21T01:32:08;22.30;99.90
40589;DHT22;26297;49.450;6.640;2022-07-21T01:35:13;22.30;99.90
40589;DHT22;26297;49.450;6.640;2022-07-21T01:38:16;22.30;99.90
40589;DHT22;26297;49.450;6.640;2022-07-21T01:41:38;22.30;99.90
40589;DHT22;26297;49.450;6.640;2022-07-21T01:44:41;22.30;99.90
40589;DHT22;26297;49.450;6.640;2022-07-21T01:47:45;22.20;99.90
40589;DHT22;26297;49.450;6.640;2022-07-21T01:50:48;22.20;99.90
40589;DHT22;26297;49.450;6.640;2022-07-21T01:53:52;22.20;99.90
40589;DHT22;26297;49.450;6.640;2022-07-21T01:56:56;22.20;99.90
40589;DHT22;26297;49.450;6.640;2022-07-21T01:59:59;22.10;99.90
40589;DHT22;26297;49.450;6.640;2022-07-21T02:03:01;22.10;99.90
40589;DHT22;26297;49.450;6.640;2022-07-21T02:06:05;22.10;99.90
40589;DHT22;26297;49.450;6.640;2022-07-21T02:09:10;22.10;99.90
40589;DHT22;26297;49.450;6.640;2022-07-21T02:12:14;22.10;99.90
40589;DHT22;26297;49.450;6.640;2022-07-21T02:15:16;22.00;99.90
40589;DHT22;26297;49.450;6.640;2022-07-21T02:18:20;22.00;99.90
40589;DHT22;26297;49.450;6.640;2022-07-21T02:21:24;22.10;99.90
40589;DHT22;26297;49.450;6.640;2022-07-21T02:24:27;22.00;99.90
40589;DHT22;26297;49.450;6.640;2022-07-21T02:27:31;22.00;99.90
40589;DHT22;26297;49.450;6.640;2022-07-21T02:30:34;22.00;99.90
40589;DHT22;26297;49.450;6.640;2022-07-21T02:33:38;22.00;99.90
40589;DHT22;26297;49.450;6.640;2022-07-21T02:36:41;22.00;99.90
40589;DHT22;26297;49.450;6.640;2022-07-21T02:39:44;21.90;99.90
40589;DHT22;26297;49.450;6.640;2022-07-21T02:42:48;21.90;99.90
40589;DHT22;26297;49.450;6.640;2022-07-21T02:45:51;21.90;99.90
40589;DHT22;26297;49.450;6.640;2022-07-21T02:48:54;21.90;99.90
40589;DHT22;26297;49.450;6.640;2022-07-21T02:51:58;22.00;99.90
40589;DHT22;26297;49.450;6.640;2022-07-21T02:55:01;22.00;99.90
40589;DHT22;26297;49.450;6.640;2022-07-21T03:01:15;22.00;99.90
40589;DHT22;26297;49.450;6.640;2022-07-21T03:04:19;21.90;99.90
40589;DHT22;26297;49.450;6.640;2022-07-21T03:07:21;21.90;99.90
40589;DHT22;26297;49.450;6.640;2022-07-21T03:10:24;21.90;99.90
40589;DHT22;26297;49.450;6.640;2022-07-21T03:13:28;21.90;99.90
40589;DHT22;26297;49.450;6.640;2022-07-21T03:16:31;21.90;99.90
40589;DHT22;26297;49.450;6.640;2022-07-21T03:19:35;21.90;99.90
40589;DHT22;26297;49.450;6.640;2022-07-21T03:22:38;22.00;99.90
40589;DHT22;26297;49.450;6.640;2022-07-21T03:25:42;22.00;99.90
40589;DHT22;26297;49.450;6.640;2022-07-21T03:28:45;21.90;99.90
40589;DHT22;26297;49.450;6.640;2022-07-21T03:31:49;21.90;99.90
40589;DHT22;26297;49.450;6.640;2022-07-21T03:34:52;21.90;99.90
40589;DHT22;26297;49.450;6.640;2022-07-21T03:37:57;21.90;99.90
40589;DHT22;26297;49.450;6.640;2022-07-21T03:41:01;21.90;99.90
40589;DHT22;26297;49.450;6.640;2022-07-21T03:44:04;21.90;99.90
40589;DHT22;26297;49.450;6.640;2022-07-21T03:47:07;21.90;99.90
40589;DHT22;26297;49.450;6.640;2022-07-21T03:50:11;21.80;99.90
40589;DHT22;26297;49.450;6.640;2022-07-21T03:53:15;21.90;99.90
40589;DHT22;26297;49.450;6.640;2022-07-21T03:56:18;21.90;99.90
40589;DHT22;26297;49.450;6.640;2022-07-21T03:59:21;21.80;99.90
40589;DHT22;26297;49.450;6.640;2022-07-21T04:02:24;21.80;99.90
40589;DHT22;26297;49.450;6.640;2022-07-21T04:05:27;21.80;99.90
40589;DHT22;26297;49.450;6.640;2022-07-21T04:08:31;21.80;99.90
40589;DHT22;26297;49.450;6.640;2022-07-21T04:11:34;21.80;99.90
40589;DHT22;26297;49.450;6.640;2022-07-21T04:14:37;21.80;99.90
40589;DHT22;26297;49.450;6.640;2022-07-21T04:17:40;21.80;99.90
40589;DHT22;26297;49.450;6.640;2022-07-21T04:20:44;21.80;99.90
40589;DHT22;26297;49.450;6.640;2022-07-21T04:23:47;21.80;99.90
40589;DHT22;26297;49.450;6.640;2022-07-21T04:26:51;21.80;99.90
40589;DHT22;26297;49.450;6.640;2022-07-21T04:29:53;21.80;99.90
40589;DHT22;26297;49.450;6.640;2022-07-21T04:32:57;21.80;99.90
40589;DHT22;26297;49.450;6.640;2022-07-21T04:36:01;21.80;99.90
40589;DHT22;26297;49.450;6.640;2022-07-21T04:39:04;21.90;99.90
40589;DHT22;26297;49.450;6.640;2022-07-21T04:42:07;21.90;99.90
40589;DHT22;26297;49.450;6.640;2022-07-21T04:45:12;21.90;99.90
40589;DHT22;26297;49.450;6.640;2022-07-21T04:48:15;21.90;99.90
40589;DHT22;26297;49.450;6.640;2022-07-21T04:51:18;21.90;99.90
40589;DHT22;26297;49.450;6.640;2022-07-21T04:54:21;21.90;99.90
40589;DHT22;26297;49.450;6.640;2022-07-21T04:57:24;21.80;99.90
40589;DHT22;26297;49.450;6.640;2022-07-21T05:00:28;21.80;99.90
40589;DHT22;26297;49.450;6.640;2022-07-21T05:03:32;21.80;99.90
40589;DHT22;26297;49.450;6.640;2022-07-21T05:06:35;21.80;99.90
40589;DHT22;26297;49.450;6.640;2022-07-21T05:09:38;21.90;99.90
40589;DHT22;26297;49.450;6.640;2022-07-21T05:12:41;21.90;99.90
40589;DHT22;26297;49.450;6.640;2022-07-21T05:15:45;21.90;99.90
40589;DHT22;26297;49.450;6.640;2022-07-21T05:18:48;21.90;99.90
40589;DHT22;26297;49.450;6.640;2022-07-21T05:21:52;21.90;99.90
40589;DHT22;26297;49.450;6.640;2022-07-21T05:24:55;21.90;99.90
40589;DHT22;26297;49.450;6.640;2022-07-21T05:27:58;21.90;99.90
40589;DHT22;26297;49.450;6.640;2022-07-21T05:31:01;21.90;99.90
40589;DHT22;26297;49.450;6.640;2022-07-21T05:34:07;21.90;99.90
40589;DHT22;26297;49.450;6.640;2022-07-21T05:37:10;22.00;99.90
40589;DHT22;26297;49.450;6.640;2022-07-21T05:40:14;22.10;99.90
40589;DHT22;26297;49.450;6.640;2022-07-21T05:43:17;22.10;99.90
40589;DHT22;26297;49.450;6.640;2022-07-21T05:46:20;22.20;99.90
40589;DHT22;26297;49.450;6.640;2022-07-21T05:49:23;22.20;99.90
40589;DHT22;26297;49.450;6.640;2022-07-21T05:52:26;22.10;99.90
40589;DHT22;26297;49.450;6.640;2022-07-21T05:55:29;22.10;99.90
40589;DHT22;26297;49.450;6.640;2022-07-21T05:58:35;22.10;99.90
40589;DHT22;26297;49.450;6.640;2022-07-21T06:01:38;22.10;99.90
40589;DHT22;26297;49.450;6.640;2022-07-21T06:04:41;22.10;99.90
40589;DHT22;26297;49.450;6.640;2022-07-21T06:07:44;22.10;99.90
40589;DHT22;26297;49.450;6.640;2022-07-21T06:10:48;22.20;99.90
40589;DHT22;26297;49.450;6.640;2022-07-21T06:13:53;22.20;99.90
40589;DHT22;26297;49.450;6.640;2022-07-21T06:16:59;22.10;99.90
40589;DHT22;26297;49.450;6.640;2022-07-21T06:20:05;22.00;99.90
40589;DHT22;26297;49.450;6.640;2022-07-21T06:23:14;22.10;99.90
40589;DHT22;26297;49.450;6.640;2022-07-21T06:26:22;22.10;99.90
40589;DHT22;26297;49.450;6.640;2022-07-21T06:29:26;22.00;99.90
40589;DHT22;26297;49.450;6.640;2022-07-21T06:32:29;22.00;99.90
40589;DHT22;26297;49.450;6.640;2022-07-21T06:35:33;22.00;99.90
40589;DHT22;26297;49.450;6.640;2022-07-21T06:38:36;22.10;99.90
40589;DHT22;26297;49.450;6.640;2022-07-21T06:41:40;22.10;99.90
40589;DHT22;26297;49.450;6.640;2022-07-21T06:44:43;22.10;99.90
40589;DHT22;26297;49.450;6.640;2022-07-21T06:47:46;22.10;99.90
40589;DHT22;26297;49.450;6.640;2022-07-21T06:50:50;22.10;99.90
40589;DHT22;26297;49.450;6.640;2022-07-21T06:53:53;22.10;99.90
40589;DHT22;26297;49.450;6.640;2022-07-21T06:56:56;22.10;99.90
40589;DHT22;26297;49.450;6.640;2022-07-21T06:59:59;22.20;99.90
40589;DHT22;26297;49.450;6.640;2022-07-21T07:03:03;22.20;99.90
40589;DHT22;26297;49.450;6.640;2022-07-21T07:06:07;22.20;99.90
40589;DHT22;26297;49.450;6.640;2022-07-21T07:09:10;22.20;99.90
40589;DHT22;26297;49.450;6.640;2022-07-21T07:12:13;22.20;99.90
40589;DHT22;26297;49.450;6.640;2022-07-21T07:15:16;22.20;99.90
40589;DHT22;26297;49.450;6.640;2022-07-21T07:18:19;22.20;99.90
40589;DHT22;26297;49.450;6.640;2022-07-21T07:21:23;22.20;99.90
40589;DHT22;26297;49.450;6.640;2022-07-21T07:24:26;22.20;99.90
40589;DHT22;26297;49.450;6.640;2022-07-21T07:27:29;22.20;99.90
40589;DHT22;26297;49.450;6.640;2022-07-21T07:30:32;22.20;99.90
40589;DHT22;26297;49.450;6.640;2022-07-21T07:33:35;22.20;99.90
40589;DHT22;26297;49.450;6.640;2022-07-21T07:36:38;22.20;99.90
40589;DHT22;26297;49.450;6.640;2022-07-21T07:39:41;22.10;99.90
40589;DHT22;26297;49.450;6.640;2022-07-21T07:42:45;22.10;99.90
40589;DHT22;26297;49.450;6.640;2022-07-21T07:45:48;22.10;99.90
40589;DHT22;26297;49.450;6.640;2022-07-21T07:48:54;22.20;99.90
40589;DHT22;26297;49.450;6.640;2022-07-21T07:51:58;22.20;99.90
40589;DHT22;26297;49.450;6.640;2022-07-21T07:55:01;22.20;99.90
40589;DHT22;26297;49.450;6.640;2022-07-21T07:58:08;22.20;99.90
40589;DHT22;26297;49.450;6.640;2022-07-21T08:01:11;22.10;99.90
40589;DHT22;26297;49.450;6.640;2022-07-21T08:04:14;22.20;99.90
40589;DHT22;26297;49.450;6.640;2022-07-21T08:07:18;22.20;99.90
40589;DHT22;26297;49.450;6.640;2022-07-21T08:10:21;22.20;99.90
40589;DHT22;26297;49.450;6.640;2022-07-21T08:13:25;22.20;99.90
40589;DHT22;26297;49.450;6.640;2022-07-21T08:16:29;22.20;99.90
40589;DHT22;26297;49.450;6.640;2022-07-21T08:19:32;22.20;99.90
40589;DHT22;26297;49.450;6.640;2022-07-21T08:22:35;22.20;99.90
40589;DHT22;26297;49.450;6.640;2022-07-21T08:25:38;22.20;99.90
40589;DHT22;26297;49.450;6.640;2022-07-21T08:28:42;22.20;99.90
40589;DHT22;26297;49.450;6.640;2022-07-21T08:31:45;22.30;99.90
40589;DHT22;26297;49.450;6.640;2022-07-21T08:34:49;22.30;99.90
40589;DHT22;26297;49.450;6.640;2022-07-21T08:38:04;22.30;99.90
40589;DHT22;26297;49.450;6.640;2022-07-21T08:41:07;22.30;99.90
40589;DHT22;26297;49.450;6.640;2022-07-21T08:44:11;22.30;99.90
40589;DHT22;26297;49.450;6.640;2022-07-21T08:47:15;22.30;99.90
40589;DHT22;26297;49.450;6.640;2022-07-21T08:50:19;22.30;99.90
40589;DHT22;26297;49.450;6.640;2022-07-21T08:53:23;22.30;99.90
40589;DHT22;26297;49.450;6.640;2022-07-21T08:56:26;22.30;99.90
40589;DHT22;26297;49.450;6.640;2022-07-21T08:59:30;22.30;99.90
40589;DHT22;26297;49.450;6.640;2022-07-21T09:02:34;22.30;99.90
40589;DHT22;26297;49.450;6.640;2022-07-21T09:05:37;22.40;99.90
40589;DHT22;26297;49.450;6.640;2022-07-21T09:08:44;22.40;99.90
40589;DHT22;26297;49.450;6.640;2022-07-21T09:11:47;22.40;99.90
40589;DHT22;26297;49.450;6.640;2022-07-21T09:14:50;22.50;99.90
40589;DHT22;26297;49.450;6.640;2022-07-21T09:18:13;22.50;99.90
40589;DHT22;26297;49.450;6.640;2022-07-21T09:21:18;22.40;99.90
40589;DHT22;26297;49.450;6.640;2022-07-21T09:24:26;22.50;99.90
40589;DHT22;26297;49.450;6.640;2022-07-21T09:27:34;22.50;99.90
40589;DHT22;26297;49.450;6.640;2022-07-21T09:34:13;22.50;99.90
40589;DHT22;26297;49.450;6.640;2022-07-21T09:37:18;22.50;99.90
40589;DHT22;26297;49.450;6.640;2022-07-21T09:40:22;22.50;99.90
40589;DHT22;26297;49.450;6.640;2022-07-21T09:43:39;22.50;99.90
40589;DHT22;26297;49.450;6.640;2022-07-21T09:46:46;22.50;99.90
40589;DHT22;26297;49.450;6.640;2022-07-21T09:49:49;22.50;99.90
40589;DHT22;26297;49.450;6.640;2022-07-21T09:52:54;22.50;99.90
40589;DHT22;26297;49.450;6.640;2022-07-21T09:55:58;22.50;99.90
40589;DHT22;26297;49.450;6.640;2022-07-21T09:59:03;22.50;99.90
40589;DHT22;26297;49.450;6.640;2022-07-21T10:02:06;22.50;99.90
40589;DHT22;26297;49.450;6.640;2022-07-21T10:05:15;22.50;99.90
40589;DHT22;26297;49.450;6.640;2022-07-21T10:08:19;22.50;99.90
40589;DHT22;26297;49.450;6.640;2022-07-21T10:11:22;22.50;99.90
40589;DHT22;26297;49.450;6.640;2022-07-21T10:14:26;22.50;99.90
40589;DHT22;26297;49.450;6.640;2022-07-21T10:17:29;22.50;99.90
40589;DHT22;26297;49.450;6.640;2022-07-21T10:20:37;22.50;99.90
40589;DHT22;26297;49.450;6.640;2022-07-21T10:23:43;22.50;99.90
40589;DHT22;26297;49.450;6.640;2022-07-21T10:27:19;22.50;99.90
40589;DHT22;26297;49.450;6.640;2022-07-21T10:30:37;22.60;99.90
40589;DHT22;26297;49.450;6.640;2022-07-21T10:36:47;22.60;99.90
40589;DHT22;26297;49.450;6.640;2022-07-21T10:39:50;22.60;99.90
40589;DHT22;26297;49.450;6.640;2022-07-21T10:46:03;22.60;99.90
40589;DHT22;26297;49.450;6.640;2022-07-21T10:56:29;22.70;99.90
40589;DHT22;26297;49.450;6.640;2022-07-21T11:03:36;22.70;99.90
40589;DHT22;26297;49.450;6.640;2022-07-21T11:06:41;22.70;99.90
40589;DHT22;26297;49.450;6.640;2022-07-21T11:10:14;22.70;99.90
40589;DHT22;26297;49.450;6.640;2022-07-21T11:13:19;22.70;99.90
40589;DHT22;26297;49.450;6.640;2022-07-21T11:19:52;22.80;99.90
40589;DHT22;26297;49.450;6.640;2022-07-21T11:22:56;22.80;99.90
40589;DHT22;26297;49.450;6.640;2022-07-21T11:26:07;22.80;99.90
40589;DHT22;26297;49.450;6.640;2022-07-21T11:29:10;22.90;99.90
40589;DHT22;26297;49.450;6.640;2022-07-21T11:32:14;22.90;99.90
40589;DHT22;26297;49.450;6.640;2022-07-21T11:35:19;23.00;99.90
40589;DHT22;26297;49.450;6.640;2022-07-21T11:38:22;23.00;99.90
40589;DHT22;26297;49.450;6.640;2022-07-21T11:41:24;23.00;99.90
40589;DHT22;26297;49.450;6.640;2022-07-21T11:44:27;23.00;99.90
40589;DHT22;26297;49.450;6.640;2022-07-21T11:47:31;23.00;99.90
40589;DHT22;26297;49.450;6.640;2022-07-21T11:50:34;23.00;99.90
40589;DHT22;26297;49.450;6.640;2022-07-21T11:53:43;23.00;99.90
40589;DHT22;26297;49.450;6.640;2022-07-21T11:56:48;22.90;99.90
40589;DHT22;26297;49.450;6.640;2022-07-21T11:59:53;23.00;99.90
40589;DHT22;26297;49.450;6.640;2022-07-21T12:03:08;23.00;99.90
40589;DHT22;26297;49.450;6.640;2022-07-21T12:06:13;23.00;99.90
40589;DHT22;26297;49.450;6.640;2022-07-21T12:09:17;23.00;99.90
40589;DHT22;26297;49.450;6.640;2022-07-21T12:15:37;23.00;99.90
40589;DHT22;26297;49.450;6.640;2022-07-21T12:18:42;23.00;99.90
40589;DHT22;26297;49.450;6.640;2022-07-21T12:21:50;23.00;99.90
40589;DHT22;26297;49.450;6.640;2022-07-21T12:24:55;23.10;99.90
40589;DHT22;26297;49.450;6.640;2022-07-21T12:27:59;23.10;99.90
40589;DHT22;26297;49.450;6.640;2022-07-21T12:31:11;23.10;99.90
40589;DHT22;26297;49.450;6.640;2022-07-21T12:34:17;23.10;99.90
40589;DHT22;26297;49.450;6.640;2022-07-21T12:37:21;23.10;99.90
40589;DHT22;26297;49.450;6.640;2022-07-21T12:40:25;23.10;99.90
40589;DHT22;26297;49.450;6.640;2022-07-21T12:43:29;23.10;99.90
40589;DHT22;26297;49.450;6.640;2022-07-21T12:46:34;23.10;99.90
40589;DHT22;26297;49.450;6.640;2022-07-21T12:50:05;23.10;99.90
40589;DHT22;26297;49.450;6.640;2022-07-21T12:53:10;23.10;99.90
40589;DHT22;26297;49.450;6.640;2022-07-21T12:56:25;23.10;99.90
40589;DHT22;26297;49.450;6.640;2022-07-21T12:59:30;23.10;99.90
40589;DHT22;26297;49.450;6.640;2022-07-21T13:02:45;23.10;99.90
40589;DHT22;26297;49.450;6.640;2022-07-21T13:05:49;23.20;99.90
40589;DHT22;26297;49.450;6.640;2022-07-21T13:08:52;23.30;99.90
40589;DHT22;26297;49.450;6.640;2022-07-21T13:11:56;23.40;99.90
40589;DHT22;26297;49.450;6.640;2022-07-21T13:14:59;23.40;99.90
40589;DHT22;26297;49.450;6.640;2022-07-21T13:18:05;23.50;99.90
40589;DHT22;26297;49.450;6.640;2022-07-21T13:21:09;23.50;99.90
40589;DHT22;26297;49.450;6.640;2022-07-21T13:24:12;23.50;99.90
40589;DHT22;26297;49.450;6.640;2022-07-21T13:27:15;23.60;99.90
40589;DHT22;26297;49.450;6.640;2022-07-21T13:30:18;23.60;99.90
40589;DHT22;26297;49.450;6.640;2022-07-21T13:33:42;23.60;99.90
40589;DHT22;26297;49.450;6.640;2022-07-21T13:36:46;23.60;99.90
40589;DHT22;26297;49.450;6.640;2022-07-21T13:39:49;23.70;99.90
40589;DHT22;26297;49.450;6.640;2022-07-21T13:42:53;23.60;99.90
40589;DHT22;26297;49.450;6.640;2022-07-21T13:45:57;23.60;99.90
40589;DHT22;26297;49.450;6.640;2022-07-21T13:49:00;23.60;99.90
40589;DHT22;26297;49.450;6.640;2022-07-21T13:52:03;23.60;99.90
40589;DHT22;26297;49.450;6.640;2022-07-21T13:55:08;23.70;99.90
40589;DHT22;26297;49.450;6.640;2022-07-21T13:58:15;23.70;99.90
40589;DHT22;26297;49.450;6.640;2022-07-21T14:01:18;23.80;99.90
40589;DHT22;26297;49.450;6.640;2022-07-21T14:04:22;23.90;99.90
40589;DHT22;26297;49.450;6.640;2022-07-21T14:07:25;23.80;99.90
40589;DHT22;26297;49.450;6.640;2022-07-21T14:10:28;23.90;99.90
40589;DHT22;26297;49.450;6.640;2022-07-21T14:13:32;23.90;99.60
40589;DHT22;26297;49.450;6.640;2022-07-21T14:16:37;23.90;99.90
40589;DHT22;26297;49.450;6.640;2022-07-21T14:19:41;23.90;99.90
40589;DHT22;26297;49.450;6.640;2022-07-21T14:22:45;24.00;99.30
40589;DHT22;26297;49.450;6.640;2022-07-21T14:25:50;23.90;99.20
40589;DHT22;26297;49.450;6.640;2022-07-21T14:28:53;23.90;99.30
40589;DHT22;26297;49.450;6.640;2022-07-21T14:31:56;23.80;99.90
40589;DHT22;26297;49.450;6.640;2022-07-21T14:34:59;23.90;99.90
40589;DHT22;26297;49.450;6.640;2022-07-21T14:38:03;23.80;99.90
40589;DHT22;26297;49.450;6.640;2022-07-21T14:41:06;23.80;99.90
40589;DHT22;26297;49.450;6.640;2022-07-21T14:44:10;23.80;99.90
40589;DHT22;26297;49.450;6.640;2022-07-21T14:47:14;23.80;99.90
40589;DHT22;26297;49.450;6.640;2022-07-21T14:50:17;23.70;99.90
40589;DHT22;26297;49.450;6.640;2022-07-21T14:53:21;23.70;99.90
40589;DHT22;26297;49.450;6.640;2022-07-21T14:56:24;23.70;99.90
40589;DHT22;26297;49.450;6.640;2022-07-21T14:59:27;23.70;99.90
40589;DHT22;26297;49.450;6.640;2022-07-21T15:02:30;23.70;99.90
40589;DHT22;26297;49.450;6.640;2022-07-21T15:05:34;23.70;99.90
40589;DHT22;26297;49.450;6.640;2022-07-21T15:08:40;23.70;99.90
40589;DHT22;26297;49.450;6.640;2022-07-21T15:11:44;23.70;99.90
40589;DHT22;26297;49.450;6.640;2022-07-21T15:14:48;23.80;99.90
40589;DHT22;26297;49.450;6.640;2022-07-21T15:17:51;23.90;99.90
40589;DHT22;26297;49.450;6.640;2022-07-21T15:20:55;23.90;99.90
40589;DHT22;26297;49.450;6.640;2022-07-21T15:23:59;24.00;99.90
40589;DHT22;26297;49.450;6.640;2022-07-21T15:27:03;24.00;99.40
40589;DHT22;26297;49.450;6.640;2022-07-21T15:30:12;24.00;99.90
40589;DHT22;26297;49.450;6.640;2022-07-21T15:33:24;24.00;99.50
40589;DHT22;26297;49.450;6.640;2022-07-21T15:36:30;24.00;99.90
40589;DHT22;26297;49.450;6.640;2022-07-21T15:43:21;24.70;99.90
40589;DHT22;26297;49.450;6.640;2022-07-21T15:46:33;23.30;99.90
40589;DHT22;26297;49.450;6.640;2022-07-21T15:49:40;23.40;99.90
40589;DHT22;26297;49.450;6.640;2022-07-21T15:52:43;23.80;99.90
40589;DHT22;26297;49.450;6.640;2022-07-21T15:55:46;23.90;99.90
40589;DHT22;26297;49.450;6.640;2022-07-21T15:58:50;23.90;99.90
40589;DHT22;26297;49.450;6.640;2022-07-21T16:02:14;23.90;99.90
40589;DHT22;26297;49.450;6.640;2022-07-21T16:05:20;24.00;99.90
40589;DHT22;26297;49.450;6.640;2022-07-21T16:08:23;23.90;99.90
40589;DHT22;26297;49.450;6.640;2022-07-21T16:11:27;23.90;99.90
40589;DHT22;26297;49.450;6.640;2022-07-21T16:14:30;23.80;99.90
40589;DHT22;26297;49.450;6.640;2022-07-21T16:17:34;23.90;99.90
40589;DHT22;26297;49.450;6.640;2022-07-21T16:20:37;23.80;99.90
40589;DHT22;26297;49.450;6.640;2022-07-21T16:23:41;23.90;99.90
40589;DHT22;26297;49.450;6.640;2022-07-21T16:26:44;23.90;99.90
40589;DHT22;26297;49.450;6.640;2022-07-21T16:29:47;23.80;99.90
40589;DHT22;26297;49.450;6.640;2022-07-21T16:32:50;23.70;99.90
40589;DHT22;26297;49.450;6.640;2022-07-21T16:35:53;23.70;99.90
40589;DHT22;26297;49.450;6.640;2022-07-21T16:38:56;23.70;99.90
40589;DHT22;26297;49.450;6.640;2022-07-21T16:42:00;23.70;99.90
40589;DHT22;26297;49.450;6.640;2022-07-21T16:45:05;23.70;99.90
40589;DHT22;26297;49.450;6.640;2022-07-21T16:48:11;23.70;99.90
40589;DHT22;26297;49.450;6.640;2022-07-21T16:51:16;23.70;99.90
40589;DHT22;26297;49.450;6.640;2022-07-21T16:54:18;23.70;99.90
40589;DHT22;26297;49.450;6.640;2022-07-21T16:57:21;23.80;99.90
40589;DHT22;26297;49.450;6.640;2022-07-21T17:00:25;23.80;99.90
40589;DHT22;26297;49.450;6.640;2022-07-21T17:03:28;23.90;99.90
40589;DHT22;26297;49.450;6.640;2022-07-21T17:06:32;23.80;99.90
40589;DHT22;26297;49.450;6.640;2022-07-21T17:09:54;23.90;99.90
40589;DHT22;26297;49.450;6.640;2022-07-21T17:13:06;23.90;99.90
40589;DHT22;26297;49.450;6.640;2022-07-21T17:16:15;23.90;99.90
40589;DHT22;26297;49.450;6.640;2022-07-21T17:19:51;24.10;99.90
40589;DHT22;26297;49.450;6.640;2022-07-21T17:23:01;23.70;99.90
40589;DHT22;26297;49.450;6.640;2022-07-21T17:26:08;23.80;99.90
40589;DHT22;26297;49.450;6.640;2022-07-21T17:29:14;23.60;99.90
40589;DHT22;26297;49.450;6.640;2022-07-21T17:32:53;23.80;99.90
40589;DHT22;26297;49.450;6.640;2022-07-21T17:35:59;23.80;99.90
40589;DHT22;26297;49.450;6.640;2022-07-21T17:39:24;23.80;99.90
40589;DHT22;26297;49.450;6.640;2022-07-21T17:42:28;23.70;99.90
40589;DHT22;26297;49.450;6.640;2022-07-21T17:45:32;23.80;99.90
40589;DHT22;26297;49.450;6.640;2022-07-21T17:48:35;23.70;99.90
40589;DHT22;26297;49.450;6.640;2022-07-21T17:51:38;23.80;99.90
40589;DHT22;26297;49.450;6.640;2022-07-21T17:54:41;23.70;99.90
40589;DHT22;26297;49.450;6.640;2022-07-21T17:57:44;23.70;99.90
40589;DHT22;26297;49.450;6.640;2022-07-21T18:01:06;23.70;99.90
40589;DHT22;26297;49.450;6.640;2022-07-21T18:04:09;23.70;99.90
40589;DHT22;26297;49.450;6.640;2022-07-21T18:07:12;23.70;99.90
40589;DHT22;26297;49.450;6.640;2022-07-21T18:10:16;23.70;99.90
40589;DHT22;26297;49.450;6.640;2022-07-21T18:13:19;23.70;99.90
40589;DHT22;26297;49.450;6.640;2022-07-21T18:16:22;23.70;99.90
40589;DHT22;26297;49.450;6.640;2022-07-21T18:19:25;23.70;99.90
40589;DHT22;26297;49.450;6.640;2022-07-21T18:22:28;23.70;99.90
40589;DHT22;26297;49.450;6.640;2022-07-21T18:25:35;23.60;99.90
40589;DHT22;26297;49.450;6.640;2022-07-21T18:28:38;23.60;99.90
40589;DHT22;26297;49.450;6.640;2022-07-21T18:31:41;23.60;99.90
40589;DHT22;26297;49.450;6.640;2022-07-21T18:34:44;23.60;99.90
40589;DHT22;26297;49.450;6.640;2022-07-21T18:37:47;23.60;99.90
40589;DHT22;26297;49.450;6.640;2022-07-21T18:40:50;23.60;99.90
40589;DHT22;26297;49.450;6.640;2022-07-21T18:43:54;23.60;99.90
40589;DHT22;26297;49.450;6.640;2022-07-21T18:46:57;23.60;99.90
40589;DHT22;26297;49.450;6.640;2022-07-21T18:50:00;23.60;99.90
40589;DHT22;26297;49.450;6.640;2022-07-21T18:53:03;23.60;99.90
40589;DHT22;26297;49.450;6.640;2022-07-21T18:56:06;23.60;99.90
40589;DHT22;26297;49.450;6.640;2022-07-21T18:59:09;23.60;99.90
40589;DHT22;26297;49.450;6.640;2022-07-21T19:02:12;23.50;99.90
40589;DHT22;26297;49.450;6.640;2022-07-21T19:05:16;23.50;99.90
40589;DHT22;26297;49.450;6.640;2022-07-21T19:08:19;23.50;99.90
40589;DHT22;26297;49.450;6.640;2022-07-21T19:11:23;23.50;99.90
40589;DHT22;26297;49.450;6.640;2022-07-21T19:14:26;23.50;99.90
40589;DHT22;26297;49.450;6.640;2022-07-21T19:17:29;23.40;99.90
40589;DHT22;26297;49.450;6.640;2022-07-21T19:20:32;23.40;99.90
40589;DHT22;26297;49.450;6.640;2022-07-21T19:23:36;23.40;99.90
40589;DHT22;26297;49.450;6.640;2022-07-21T19:26:38;23.40;99.90
40589;DHT22;26297;49.450;6.640;2022-07-21T19:29:42;23.40;99.90
40589;DHT22;26297;49.450;6.640;2022-07-21T19:32:45;23.40;99.90
40589;DHT22;26297;49.450;6.640;2022-07-21T19:35:48;23.30;99.90
40589;DHT22;26297;49.450;6.640;2022-07-21T19:38:51;23.30;99.90
40589;DHT22;26297;49.450;6.640;2022-07-21T19:42:03;23.30;99.90
40589;DHT22;26297;49.450;6.640;2022-07-21T19:45:08;23.30;99.90
40589;DHT22;26297;49.450;6.640;2022-07-21T19:48:11;23.30;99.90
40589;DHT22;26297;49.450;6.640;2022-07-21T19:51:15;23.30;99.90
40589;DHT22;26297;49.450;6.640;2022-07-21T19:54:18;23.20;99.90
40589;DHT22;26297;49.450;6.640;2022-07-21T19:57:22;23.20;99.90
40589;DHT22;26297;49.450;6.640;2022-07-21T20:00:29;23.20;99.90